createdAt,value
2023-03-03T00:01:32.355Z,5.76
2023-03-03T00:05:00.196Z,5.79
2023-03-03T00:08:28.165Z,5.81
2023-03-03T00:11:36.123Z,5.84
2023-03-03T00:15:03.966Z,5.91
2023-03-03T00:18:13.749Z,5.94
2023-03-03T00:21:41.870Z,6.00
2023-03-03T00:25:09.981Z,6.06
2023-03-03T00:28:37.754Z,6.08
2023-03-03T00:32:05.581Z,6.05
2023-03-03T00:35:33.529Z,6.06
2023-03-03T00:38:42.642Z,6.03
2023-03-03T00:42:10.715Z,6.06
2023-03-03T00:45:38.627Z,6.07
2023-03-03T00:49:06.790Z,6.09
2023-03-03T00:52:35.301Z,6.08
2023-03-03T00:56:03.263Z,6.16
2023-03-03T00:59:12.810Z,6.19
2023-03-03T01:02:40.632Z,6.16
2023-03-03T01:06:08.463Z,6.18
2023-03-03T01:09:36.392Z,6.14
2023-03-03T01:13:04.634Z,6.14
2023-03-03T01:16:32.583Z,6.13
2023-03-03T01:20:00.519Z,6.11
2023-03-03T01:23:09.521Z,6.08
2023-03-03T01:26:37.558Z,6.00
2023-03-03T01:30:05.693Z,5.91
2023-03-03T01:33:33.569Z,5.88
2023-03-03T01:37:01.433Z,5.85
2023-03-03T01:40:29.384Z,5.89
2023-03-03T01:43:57.108Z,5.99
2023-03-03T01:47:25.022Z,5.93
2023-03-03T01:50:52.969Z,5.92
2023-03-03T01:54:20.913Z,5.94
2023-03-03T01:57:49.011Z,5.94
2023-03-03T02:01:16.914Z,5.94
2023-03-03T02:04:44.636Z,5.89
2023-03-03T02:08:12.515Z,5.91
2023-03-03T02:11:41.799Z,5.86
2023-03-03T02:15:09.884Z,5.86
2023-03-03T02:18:37.692Z,5.89
2023-03-03T02:22:05.723Z,5.82
2023-03-03T02:25:33.680Z,5.83
2023-03-03T02:29:01.778Z,5.79
2023-03-03T02:32:29.629Z,5.75
2023-03-03T02:36:01.565Z,5.77
2023-03-03T02:39:29.306Z,5.81
2023-03-03T02:42:37.895Z,5.90
2023-03-03T02:45:46.966Z,5.89
2023-03-03T02:49:14.875Z,5.91
2023-03-03T02:52:42.900Z,5.93
2023-03-03T02:55:51.325Z,5.92
2023-03-03T02:59:19.300Z,5.88
2023-03-03T03:02:47.140Z,6.02
2023-03-03T03:06:15.240Z,6.13
2023-03-03T03:09:43.008Z,6.17
2023-03-03T03:12:52.094Z,6.23
2023-03-03T03:16:20.107Z,6.22
2023-03-03T03:19:49.638Z,6.08
2023-03-03T03:23:17.574Z,6.10
2023-03-03T03:26:45.664Z,6.05
2023-03-03T03:29:54.506Z,5.89
2023-03-03T03:33:22.440Z,5.88
2023-03-03T03:36:50.173Z,5.83
2023-03-03T03:40:18.181Z,5.83
2023-03-03T03:43:46.199Z,5.86
2023-03-03T03:47:15.271Z,5.82
2023-03-03T03:50:43.265Z,5.82
2023-03-03T03:53:52.254Z,5.83
2023-03-03T03:57:20.537Z,5.80
2023-03-03T04:00:48.542Z,5.80
2023-03-03T04:04:16.800Z,5.82
2023-03-03T04:07:25.588Z,5.84
2023-03-03T04:10:34.469Z,5.81
2023-03-03T04:13:24.953Z,5.78
2023-03-03T04:16:54.193Z,5.77
2023-03-03T04:20:22.082Z,5.77
2023-03-03T04:23:50.456Z,5.75
2023-03-03T04:27:18.314Z,5.74
2023-03-03T04:30:46.721Z,5.73
2023-03-03T04:33:55.532Z,5.75
2023-03-03T04:37:23.409Z,5.74
2023-03-03T04:40:32.727Z,5.71
2023-03-03T04:43:40.718Z,5.64
2023-03-03T04:46:49.853Z,5.64
2023-03-03T04:50:17.854Z,5.65
2023-03-03T04:53:45.700Z,5.59
2023-03-03T04:57:13.821Z,5.61
2023-03-03T05:00:41.860Z,5.63
2023-03-03T05:04:09.763Z,5.66
2023-03-03T05:07:37.830Z,5.67
2023-03-03T05:11:05.577Z,5.58
2023-03-03T05:14:33.685Z,5.57
2023-03-03T05:18:01.474Z,5.60
2023-03-03T05:21:30.458Z,5.71
2023-03-03T05:24:39.431Z,5.74
2023-03-03T05:28:07.737Z,5.73
2023-03-03T05:31:16.827Z,5.70
2023-03-03T05:34:45.744Z,5.76
2023-03-03T05:38:13.749Z,5.85
2023-03-03T05:41:41.604Z,5.88
2023-03-03T05:45:10.088Z,5.94
2023-03-03T05:48:37.980Z,5.94
2023-03-03T05:52:06.309Z,6.00
2023-03-03T05:55:34.237Z,6.07
2023-03-03T05:59:02.112Z,6.15
2023-03-03T06:02:29.917Z,6.19
2023-03-03T06:05:58.074Z,6.12
2023-03-03T06:08:47.902Z,6.03
2023-03-03T06:12:15.851Z,5.98
2023-03-03T06:15:43.880Z,6.10
2023-03-03T06:19:11.686Z,6.06
2023-03-03T06:22:20.201Z,6.01
2023-03-03T06:25:29.960Z,5.92
2023-03-03T06:28:58.153Z,5.89
2023-03-03T06:32:26.234Z,6.00
2023-03-03T06:35:34.317Z,5.93
2023-03-03T06:39:03.074Z,6.09
2023-03-03T06:42:30.911Z,6.21
2023-03-03T06:45:59.091Z,6.31
2023-03-03T06:49:28.256Z,6.35
2023-03-03T06:52:56.358Z,6.29
2023-03-03T06:56:24.186Z,5.98
2023-03-03T06:59:52.106Z,6.08
2023-03-03T07:03:20.217Z,6.17
2023-03-03T07:06:48.114Z,6.12
2023-03-03T07:10:16.768Z,6.07
2023-03-03T07:13:44.653Z,5.99
2023-03-03T07:17:12.425Z,6.10
2023-03-03T07:20:40.256Z,6.02
2023-03-03T07:24:08.156Z,6.09
2023-03-03T07:27:35.987Z,6.05
2023-03-03T07:31:03.943Z,6.05
2023-03-03T07:34:31.912Z,6.05
2023-03-03T07:37:59.629Z,6.08
2023-03-03T07:41:27.506Z,5.97
2023-03-03T07:44:55.545Z,5.95
2023-03-03T07:48:23.404Z,5.93
2023-03-03T07:51:51.592Z,5.92
2023-03-03T07:55:19.536Z,5.99
2023-03-03T07:58:47.611Z,5.97
2023-03-03T08:02:15.593Z,6.10
2023-03-03T08:05:43.360Z,6.17
2023-03-03T08:08:52.391Z,6.20
2023-03-03T08:12:20.281Z,6.23
2023-03-03T08:15:30.492Z,6.23
2023-03-03T08:18:58.407Z,6.20
2023-03-03T08:22:26.884Z,6.24
2023-03-03T08:25:55.432Z,6.21
2023-03-03T08:29:23.302Z,6.30
2023-03-03T08:32:51.748Z,6.39
2023-03-03T08:36:19.664Z,6.49
2023-03-03T08:39:47.616Z,6.29
2023-03-03T08:42:57.595Z,6.48
2023-03-03T08:46:25.769Z,6.54
2023-03-03T08:49:34.999Z,6.65
2023-03-03T08:53:03.512Z,6.74
2023-03-03T08:56:31.415Z,6.76
2023-03-03T08:59:39.848Z,6.86
2023-03-03T09:03:07.854Z,6.97
2023-03-03T09:06:36.508Z,7.02
2023-03-03T09:09:45.683Z,7.10
2023-03-03T09:13:14.286Z,7.21
2023-03-03T09:16:42.749Z,7.45
2023-03-03T09:20:11.164Z,7.55
2023-03-03T09:23:39.161Z,7.71
2023-03-03T09:27:06.907Z,7.69
2023-03-03T09:30:34.801Z,7.80
2023-03-03T09:33:44.142Z,7.79
2023-03-03T09:37:15.113Z,7.78
2023-03-03T09:40:40.308Z,7.73
2023-03-03T09:44:08.099Z,7.83
2023-03-03T09:47:36.264Z,7.91
2023-03-03T09:51:04.767Z,7.89
2023-03-03T09:54:32.910Z,8.06
2023-03-03T09:58:10.453Z,8.00
2023-03-03T10:01:30.389Z,8.15
2023-03-03T10:04:58.275Z,8.27
2023-03-03T10:08:26.230Z,8.16
2023-03-03T10:11:14.933Z,8.21
2023-03-03T10:14:42.966Z,8.41
2023-03-03T10:17:53.320Z,8.58
2023-03-03T10:21:21.132Z,8.82
2023-03-03T10:24:49.805Z,8.83
2023-03-03T10:28:19.917Z,9.03
2023-03-03T10:31:47.910Z,8.91
2023-03-03T10:35:16.363Z,8.85
2023-03-03T10:38:44.207Z,8.94
2023-03-03T10:42:12.198Z,9.10
2023-03-03T10:45:42.261Z,9.20
2023-03-03T10:49:10.405Z,9.05
2023-03-03T10:52:18.207Z,9.04
2023-03-03T10:55:46.412Z,9.02
2023-03-03T10:59:14.538Z,9.27
2023-03-03T11:02:42.524Z,9.24
2023-03-03T11:06:10.480Z,9.33
2023-03-03T11:09:39.139Z,9.39
2023-03-03T11:12:47.797Z,9.36
2023-03-03T11:16:15.852Z,9.53
2023-03-03T11:19:24.204Z,9.59
2023-03-03T11:22:53.873Z,9.63
2023-03-03T11:26:22.705Z,9.54
2023-03-03T11:29:52.376Z,9.62
2023-03-03T11:33:22.348Z,9.56
2023-03-03T11:36:50.860Z,9.54
2023-03-03T11:39:40.087Z,9.53
2023-03-03T11:43:09.889Z,9.33
2023-03-03T11:46:38.649Z,9.23
2023-03-03T11:49:47.741Z,9.28
2023-03-03T11:53:16.323Z,9.30
2023-03-03T11:56:45.344Z,9.27
2023-03-03T12:00:13.850Z,9.30
2023-03-03T12:03:22.807Z,9.10
2023-03-03T12:06:51.509Z,9.22
2023-03-03T12:10:19.730Z,9.28
2023-03-03T12:13:47.753Z,9.22
2023-03-03T12:17:16.213Z,9.23
2023-03-03T12:20:44.492Z,9.38
2023-03-03T12:23:53.323Z,9.43
2023-03-03T12:27:21.856Z,9.39
2023-03-03T12:30:49.598Z,9.38
2023-03-03T12:33:58.553Z,9.29
2023-03-03T12:37:26.423Z,9.17
2023-03-03T12:40:35.726Z,9.19
2023-03-03T12:44:03.794Z,9.26
2023-03-03T12:47:31.715Z,9.23
2023-03-03T12:51:00.015Z,9.20
2023-03-03T12:54:27.895Z,9.14
2023-03-03T12:57:56.207Z,9.23
2023-03-03T13:01:24.328Z,9.21
2023-03-03T13:04:52.358Z,9.08
2023-03-03T13:08:20.401Z,9.10
2023-03-03T13:11:09.623Z,9.16
2023-03-03T13:14:38.112Z,9.21
2023-03-03T13:18:06.035Z,9.26
2023-03-03T13:21:33.967Z,9.20
2023-03-03T13:25:01.944Z,9.27
2023-03-03T13:27:51.420Z,9.37
2023-03-03T13:31:19.404Z,9.43
2023-03-03T13:34:47.549Z,9.36
2023-03-03T13:38:15.551Z,9.43
2023-03-03T13:41:43.669Z,9.38
2023-03-03T13:45:11.822Z,9.28
2023-03-03T13:48:39.703Z,9.24
2023-03-03T13:52:09.150Z,9.13
2023-03-03T13:55:45.658Z,8.99
2023-03-03T13:59:14.103Z,9.08
2023-03-03T14:02:42.007Z,9.05
2023-03-03T14:06:10.070Z,9.04
2023-03-03T14:09:37.888Z,9.04
2023-03-03T14:12:47.730Z,9.01
2023-03-03T14:16:16.615Z,8.99
2023-03-03T14:19:44.935Z,8.91
2023-03-03T14:23:13.040Z,8.86
2023-03-03T14:26:41.717Z,8.85
2023-03-03T14:29:51.748Z,8.86
2023-03-03T14:33:19.686Z,8.90
2023-03-03T14:36:47.959Z,8.84
2023-03-03T14:40:15.901Z,8.65
2023-03-03T14:43:43.877Z,8.64
2023-03-03T14:46:52.785Z,8.55
2023-03-03T14:50:20.787Z,8.54
2023-03-03T14:53:48.682Z,8.49
2023-03-03T14:56:57.322Z,8.43
2023-03-03T15:00:25.259Z,8.36
2023-03-03T15:03:53.616Z,8.29
2023-03-03T15:07:22.115Z,8.38
2023-03-03T15:10:50.100Z,8.43
2023-03-03T15:14:18.089Z,8.52
2023-03-03T15:17:46.429Z,8.49
2023-03-03T15:20:35.232Z,8.51
2023-03-03T15:24:03.728Z,8.45
2023-03-03T15:27:33.650Z,8.33
2023-03-03T15:30:42.439Z,8.36
2023-03-03T15:34:10.505Z,8.34
2023-03-03T15:37:39.521Z,8.30
2023-03-03T15:40:47.451Z,8.15
2023-03-03T15:44:16.952Z,8.12
2023-03-03T15:47:26.098Z,8.08
2023-03-03T15:50:53.888Z,8.06
2023-03-03T15:54:21.870Z,7.93
2023-03-03T15:57:49.911Z,7.91
2023-03-03T16:01:18.135Z,7.88
2023-03-03T16:04:26.832Z,7.74
2023-03-03T16:07:54.900Z,7.83
2023-03-03T16:11:03.261Z,7.82
2023-03-03T16:13:52.926Z,7.74
2023-03-03T16:17:21.638Z,7.67
2023-03-03T16:20:49.723Z,7.63
2023-03-03T16:24:15.153Z,7.62
2023-03-03T16:27:43.043Z,7.61
2023-03-03T16:31:11.252Z,7.58
2023-03-03T16:34:40.055Z,7.56
2023-03-03T16:38:08.927Z,7.55
2023-03-03T16:41:39.336Z,7.51
2023-03-03T16:45:04.898Z,7.50
2023-03-03T16:48:32.840Z,7.47
2023-03-03T16:52:00.803Z,7.48
2023-03-03T16:55:09.725Z,7.48
2023-03-03T16:58:18.831Z,7.43
2023-03-03T17:01:46.871Z,7.46
2023-03-03T17:05:14.868Z,7.47
2023-03-03T17:08:42.910Z,7.43
2023-03-03T17:12:10.854Z,7.40
2023-03-03T17:15:38.716Z,7.50
2023-03-03T17:19:06.497Z,7.50
2023-03-03T17:22:35.569Z,7.48
2023-03-03T17:26:03.560Z,7.48
2023-03-03T17:29:12.449Z,7.44
2023-03-03T17:32:40.294Z,7.46
2023-03-03T17:36:08.565Z,7.48
2023-03-03T17:39:36.634Z,7.47
2023-03-03T17:43:05.147Z,7.44
2023-03-03T17:46:33.349Z,7.41
2023-03-03T17:50:01.155Z,7.43
2023-03-03T17:53:10.039Z,7.45
2023-03-03T17:56:38.276Z,7.43
2023-03-03T18:00:06.378Z,7.39
2023-03-03T18:03:15.570Z,7.40
2023-03-03T18:06:43.713Z,7.37
2023-03-03T18:10:11.745Z,7.44
2023-03-03T18:13:39.620Z,7.44
2023-03-03T18:17:07.889Z,7.43
2023-03-03T18:20:35.926Z,7.45
2023-03-03T18:24:03.867Z,7.50
2023-03-03T18:27:32.446Z,7.57
2023-03-03T18:31:00.643Z,7.58
2023-03-03T18:34:28.617Z,7.50
2023-03-03T18:37:56.442Z,7.49
2023-03-03T18:41:24.444Z,7.47
2023-03-03T18:44:32.941Z,7.45
2023-03-03T18:48:00.925Z,7.45
2023-03-03T18:51:29.171Z,7.48
2023-03-03T18:54:57.353Z,7.51
2023-03-03T18:58:25.346Z,7.54
2023-03-03T19:01:53.328Z,7.63
2023-03-03T19:05:22.646Z,7.62
2023-03-03T19:08:51.118Z,7.62
2023-03-03T19:12:18.962Z,7.59
2023-03-03T19:15:26.949Z,7.57
2023-03-03T19:18:54.920Z,7.61
2023-03-03T19:22:22.846Z,7.62
2023-03-03T19:25:51.309Z,7.64
2023-03-03T19:29:19.322Z,7.65
2023-03-03T19:32:47.355Z,7.66
2023-03-03T19:36:15.209Z,7.72
2023-03-03T19:39:45.762Z,7.73
2023-03-03T19:43:11.059Z,7.78
2023-03-03T19:46:39.107Z,7.80
2023-03-03T19:50:07.288Z,7.76
2023-03-03T19:53:35.869Z,7.82
2023-03-03T19:57:04.087Z,7.84
2023-03-03T20:00:31.882Z,7.94
2023-03-03T20:03:59.980Z,8.05
2023-03-03T20:07:28.502Z,8.12
2023-03-03T20:10:56.905Z,8.17
2023-03-03T20:14:25.333Z,8.15
2023-03-03T20:17:53.403Z,8.09
2023-03-03T20:21:01.964Z,8.02
2023-03-03T20:24:10.916Z,7.98
2023-03-03T20:27:38.930Z,8.06
2023-03-03T20:31:07.081Z,7.98
2023-03-03T20:34:35.070Z,7.94
2023-03-03T20:38:03.105Z,7.92
2023-03-03T20:41:30.878Z,7.87
2023-03-03T20:44:58.827Z,7.81
2023-03-03T20:48:26.769Z,7.85
2023-03-03T20:51:54.998Z,7.81
2023-03-03T20:55:22.965Z,7.80
2023-03-03T20:58:51.486Z,7.84
2023-03-03T21:02:19.479Z,7.85
2023-03-03T21:05:48.917Z,7.89
2023-03-03T21:09:16.784Z,7.89
2023-03-03T21:12:44.802Z,7.85
2023-03-03T21:16:08.573Z,7.76
2023-03-03T21:19:32.362Z,7.81
2023-03-03T21:22:56.128Z,7.83
2023-03-03T21:26:05.098Z,7.88
2023-03-03T21:29:14.090Z,7.87
2023-03-03T21:32:42.183Z,7.86
2023-03-03T21:36:10.068Z,7.84
2023-03-03T21:39:28.051Z,7.83
2023-03-03T21:42:56.199Z,7.79
2023-03-03T21:46:24.334Z,7.71
2023-03-03T21:49:52.138Z,7.77
2023-03-03T21:53:20.238Z,7.76
2023-03-03T21:56:28.963Z,7.73
2023-03-03T21:59:56.981Z,7.66
2023-03-03T22:03:25.181Z,7.57
2023-03-03T22:06:53.467Z,7.60
2023-03-03T22:10:21.340Z,7.57
2023-03-03T22:13:49.736Z,7.61
2023-03-03T22:17:17.652Z,7.61
2023-03-03T22:20:45.813Z,7.61
2023-03-03T22:24:14.243Z,7.61
2023-03-03T22:27:42.132Z,7.60
2023-03-03T22:31:10.205Z,7.61
2023-03-03T22:34:38.001Z,7.61
2023-03-03T22:38:06.776Z,7.54
2023-03-03T22:41:34.615Z,7.55
2023-03-03T22:45:02.580Z,7.52
2023-03-03T22:48:30.777Z,7.42
2023-03-03T22:51:58.610Z,7.45
2023-03-03T22:55:26.589Z,7.52
2023-03-03T22:58:54.480Z,7.60
2023-03-03T23:02:22.572Z,7.58
2023-03-03T23:05:52.387Z,7.57
2023-03-03T23:09:20.192Z,7.58
2023-03-03T23:12:48.065Z,7.56
2023-03-03T23:15:57.072Z,7.56
2023-03-03T23:19:24.887Z,7.60
2023-03-03T23:22:52.719Z,7.60
2023-03-03T23:26:20.593Z,7.59
2023-03-03T23:29:48.284Z,7.57
2023-03-03T23:33:16.566Z,7.58
2023-03-03T23:36:44.501Z,7.66
2023-03-03T23:40:12.337Z,7.65
2023-03-03T23:43:40.250Z,7.67
2023-03-03T23:47:08.259Z,7.64
2023-03-03T23:50:36.424Z,7.63
2023-03-03T23:54:04.760Z,7.60
2023-03-03T23:57:13.221Z,7.65
